createdAt,value
2022-08-02T00:00:09.703Z,524.00
2022-08-02T00:01:09.805Z,525.00
2022-08-02T00:02:09.912Z,526.00
2022-08-02T00:03:09.668Z,534.00
2022-08-02T00:04:09.645Z,542.00
2022-08-02T00:05:09.679Z,544.00
2022-08-02T00:06:09.603Z,538.00
2022-08-02T00:07:11.681Z,538.00
2022-08-02T00:08:09.585Z,530.00
2022-08-02T00:09:09.674Z,530.00
2022-08-02T00:10:09.565Z,530.00
2022-08-02T00:11:09.618Z,529.00
2022-08-02T00:12:09.932Z,528.00
2022-08-02T00:13:09.534Z,525.00
2022-08-02T00:14:09.486Z,525.00
2022-08-02T00:15:09.547Z,528.00
2022-08-02T00:16:09.496Z,531.00
2022-08-02T00:17:09.559Z,535.00
2022-08-02T00:18:09.447Z,534.00
2022-08-02T00:19:09.468Z,529.00
2022-08-02T00:20:09.428Z,526.00
2022-08-02T00:21:09.487Z,523.00
2022-08-02T00:22:09.684Z,523.00
2022-08-02T00:23:09.403Z,522.00
2022-08-02T00:24:28.972Z,520.00
2022-08-02T00:25:10.372Z,517.00
2022-08-02T00:26:09.432Z,516.00
2022-08-02T00:27:09.778Z,516.00
2022-08-02T00:28:09.388Z,516.00
2022-08-02T00:29:09.310Z,518.00
2022-08-02T00:30:09.346Z,519.00
2022-08-02T00:31:09.287Z,522.00
2022-08-02T00:32:09.631Z,525.00
2022-08-02T00:33:09.263Z,522.00
2022-08-02T00:34:28.975Z,520.00
2022-08-02T00:35:10.228Z,518.00
2022-08-02T00:36:09.296Z,520.00
2022-08-02T00:37:09.204Z,522.00
2022-08-02T00:38:10.227Z,521.00
2022-08-02T00:39:34.167Z,516.00
2022-08-02T00:40:10.203Z,514.00
2022-08-02T00:41:09.154Z,511.00
2022-08-02T00:42:30.225Z,510.00
2022-08-02T00:43:09.130Z,513.00
2022-08-02T00:44:09.146Z,518.00
2022-08-02T00:45:09.100Z,521.00
2022-08-02T00:46:09.210Z,519.00
2022-08-02T00:47:09.080Z,521.00
2022-08-02T00:48:09.171Z,523.00
2022-08-02T00:49:09.128Z,528.00
2022-08-02T00:50:09.089Z,528.00
2022-08-02T00:51:09.028Z,530.00
2022-08-02T00:52:09.361Z,530.00
2022-08-02T00:53:09.288Z,534.00
2022-08-02T00:54:09.070Z,531.00
2022-08-02T00:55:08.974Z,531.00
2022-08-02T00:56:09.033Z,532.00
2022-08-02T00:57:08.947Z,532.00
2022-08-02T00:58:08.991Z,532.00
2022-08-02T00:59:08.922Z,534.00
2022-08-02T01:00:08.904Z,533.00
2022-08-02T01:01:09.052Z,532.00
2022-08-02T01:02:09.253Z,531.00
2022-08-02T01:03:08.973Z,532.00
2022-08-02T01:04:08.890Z,531.00
2022-08-02T01:05:08.893Z,528.00
2022-08-02T01:06:12.130Z,527.00
2022-08-02T01:07:13.278Z,527.00
2022-08-02T01:08:09.804Z,528.00
2022-08-02T01:09:08.841Z,527.00
2022-08-02T01:10:08.830Z,527.00
2022-08-02T01:11:08.869Z,523.00
2022-08-02T01:12:09.665Z,518.00
2022-08-02T01:13:08.855Z,513.00
2022-08-02T01:14:08.734Z,514.00
2022-08-02T01:15:08.758Z,518.00
2022-08-02T01:16:08.814Z,520.00
2022-08-02T01:17:08.776Z,518.00
2022-08-02T01:18:08.693Z,520.00
2022-08-02T01:19:15.890Z,524.00
2022-08-02T01:20:09.672Z,524.00
2022-08-02T01:21:08.693Z,525.00
2022-08-02T01:22:08.959Z,528.00
2022-08-02T01:23:08.706Z,528.00
2022-08-02T01:24:08.613Z,530.00
2022-08-02T01:25:09.304Z,532.00
2022-08-02T01:26:08.581Z,533.00
2022-08-02T01:27:08.646Z,532.00
2022-08-02T01:28:08.975Z,529.00
2022-08-02T01:29:08.548Z,524.00
2022-08-02T01:30:08.533Z,531.00
2022-08-02T01:31:08.566Z,530.00
2022-08-02T01:32:08.924Z,530.00
2022-08-02T01:33:08.574Z,509.00
2022-08-02T01:34:08.524Z,497.00
2022-08-02T01:35:08.507Z,505.00
2022-08-02T01:36:08.448Z,506.00
2022-08-02T01:37:08.515Z,507.00
2022-08-02T01:38:08.406Z,509.00
2022-08-02T01:39:08.517Z,513.00
2022-08-02T01:40:08.419Z,520.00
2022-08-02T01:41:08.429Z,524.00
2022-08-02T01:42:08.676Z,516.00
2022-08-02T01:43:08.465Z,516.00
2022-08-02T01:44:08.345Z,520.00
2022-08-02T01:45:08.367Z,521.00
2022-08-02T01:46:08.327Z,523.00
2022-08-02T01:47:08.387Z,522.00
2022-08-02T01:48:09.502Z,503.00
2022-08-02T01:49:08.697Z,496.00
2022-08-02T01:50:08.257Z,498.00
2022-08-02T01:51:08.748Z,509.00
2022-08-02T01:52:08.494Z,515.00
2022-08-02T01:53:08.349Z,510.00
2022-08-02T01:54:08.217Z,508.00
2022-08-02T01:55:09.890Z,510.00
2022-08-02T01:56:09.278Z,499.00
2022-08-02T01:57:08.431Z,492.00
2022-08-02T01:58:08.505Z,489.00
2022-08-02T01:59:08.769Z,485.00
2022-08-02T02:00:08.128Z,485.00
2022-08-02T02:01:09.228Z,485.00
2022-08-02T02:02:09.534Z,485.00
2022-08-02T02:03:08.178Z,482.00
2022-08-02T02:04:08.108Z,479.00
2022-08-02T02:05:08.108Z,479.00
2022-08-02T02:06:08.048Z,479.00
2022-08-02T02:07:08.110Z,479.00
2022-08-02T02:08:08.020Z,481.00
2022-08-02T02:09:08.119Z,484.00
2022-08-02T02:10:08.030Z,482.00
2022-08-02T02:12:12.051Z,482.00
2022-08-02T02:12:13.449Z,478.00
2022-08-02T02:13:08.959Z,479.00
2022-08-02T02:14:08.059Z,479.00
2022-08-02T02:15:07.930Z,478.00
2022-08-02T02:16:08.021Z,479.00
2022-08-02T02:17:07.910Z,478.00
2022-08-02T02:18:12.729Z,482.00
2022-08-02T02:19:08.881Z,484.00
2022-08-02T02:20:07.902Z,481.00
2022-08-02T02:21:07.885Z,481.00
2022-08-02T02:22:08.233Z,482.00
2022-08-02T02:23:08.025Z,485.00
2022-08-02T02:24:09.128Z,485.00
2022-08-02T02:25:07.801Z,486.00
2022-08-02T02:26:07.838Z,485.00
2022-08-02T02:27:07.793Z,487.00
2022-08-02T02:28:07.930Z,488.00
2022-08-02T02:29:07.753Z,488.00
2022-08-02T02:30:08.823Z,488.00
2022-08-02T02:31:07.713Z,490.00
2022-08-02T02:32:07.913Z,495.00
2022-08-02T02:33:07.692Z,495.00
2022-08-02T02:34:07.744Z,493.00
2022-08-02T02:35:07.673Z,491.00
2022-08-02T02:36:07.732Z,493.00
2022-08-02T02:37:07.642Z,493.00
2022-08-02T02:38:07.723Z,494.00
2022-08-02T02:39:13.109Z,491.00
2022-08-02T02:40:08.615Z,494.00
2022-08-02T02:41:29.151Z,494.00
2022-08-02T02:42:07.796Z,493.00
2022-08-02T02:43:12.056Z,490.00
2022-08-02T02:44:07.547Z,489.00
2022-08-02T02:45:07.566Z,487.00
2022-08-02T02:46:07.555Z,489.00
2022-08-02T02:47:07.582Z,490.00
2022-08-02T02:48:07.481Z,491.00
2022-08-02T02:49:07.587Z,492.00
2022-08-02T02:50:07.474Z,493.00
2022-08-02T02:51:08.317Z,495.00
2022-08-02T02:52:08.765Z,496.00
2022-08-02T02:53:07.524Z,498.00
2022-08-02T02:54:30.314Z,503.00
2022-08-02T02:55:08.412Z,504.00
2022-08-02T02:56:07.446Z,503.00
2022-08-02T02:57:07.397Z,504.00
2022-08-02T02:58:07.592Z,502.00
2022-08-02T02:59:07.365Z,504.00
2022-08-02T03:00:07.367Z,505.00
2022-08-02T03:01:07.356Z,505.00
2022-08-02T03:02:07.393Z,503.00
2022-08-02T03:03:07.303Z,504.00
2022-08-02T03:04:07.659Z,504.00
2022-08-02T03:05:09.793Z,504.00
2022-08-02T03:06:15.833Z,503.00
2022-08-02T03:07:08.322Z,498.00
2022-08-02T03:08:07.774Z,497.00
2022-08-02T03:09:07.428Z,501.00
2022-08-02T03:10:07.285Z,503.00
2022-08-02T03:11:07.198Z,503.00
2022-08-02T03:12:07.248Z,503.00
2022-08-02T03:13:07.169Z,502.00
2022-08-02T03:14:07.269Z,500.00
2022-08-02T03:15:07.138Z,502.00
2022-08-02T03:16:07.241Z,502.00
2022-08-02T03:17:07.118Z,501.00
2022-08-02T03:18:07.188Z,502.00
2022-08-02T03:19:07.097Z,501.00
2022-08-02T03:20:07.098Z,502.00
2022-08-02T03:21:07.082Z,504.00
2022-08-02T03:22:09.327Z,502.00
2022-08-02T03:23:07.055Z,501.00
2022-08-02T03:24:07.129Z,502.00
2022-08-02T03:25:07.009Z,504.00
2022-08-02T03:26:07.052Z,504.00
2022-08-02T03:27:06.986Z,506.00
2022-08-02T03:28:07.009Z,499.00
2022-08-02T03:29:09.827Z,495.00
2022-08-02T03:30:06.949Z,499.00
2022-08-02T03:31:06.981Z,500.00
2022-08-02T03:32:06.923Z,498.00
2022-08-02T03:33:07.009Z,498.00
2022-08-02T03:34:06.911Z,503.00
2022-08-02T03:35:06.910Z,503.00
2022-08-02T03:36:06.881Z,506.00
2022-08-02T03:37:06.920Z,500.00
2022-08-02T03:38:06.842Z,498.00
2022-08-02T03:39:07.865Z,498.00
2022-08-02T03:40:06.836Z,496.00
2022-08-02T03:41:07.870Z,492.00
2022-08-02T03:42:06.790Z,490.00
2022-08-02T03:43:06.861Z,489.00
2022-08-02T03:44:06.750Z,492.00
2022-08-02T03:45:08.949Z,492.00
2022-08-02T03:46:06.741Z,494.00
2022-08-02T03:47:06.792Z,495.00
2022-08-02T03:48:33.726Z,494.00
2022-08-02T03:49:07.713Z,497.00
2022-08-02T03:50:06.681Z,497.00
2022-08-02T03:51:06.712Z,495.00
2022-08-02T03:52:06.702Z,498.00
2022-08-02T03:53:06.731Z,498.00
2022-08-02T03:54:07.632Z,503.00
2022-08-02T03:55:08.731Z,505.00
2022-08-02T03:56:06.659Z,506.00
2022-08-02T03:57:06.653Z,503.00
2022-08-02T03:58:06.592Z,501.00
2022-08-02T03:59:07.600Z,499.00
2022-08-02T04:00:06.569Z,494.00
2022-08-02T04:01:06.615Z,495.00
2022-08-02T04:02:06.523Z,496.00
2022-08-02T04:03:06.636Z,487.00
2022-08-02T04:04:06.520Z,492.00
2022-08-02T04:05:06.513Z,498.00
2022-08-02T04:06:06.464Z,499.00
2022-08-02T04:07:07.321Z,504.00
2022-08-02T04:08:35.209Z,503.00
2022-08-02T04:09:07.450Z,502.00
2022-08-02T04:10:06.423Z,502.00
2022-08-02T04:11:06.453Z,506.00
2022-08-02T04:12:06.386Z,507.00
2022-08-02T04:13:06.464Z,505.00
2022-08-02T04:14:06.367Z,509.00
2022-08-02T04:15:06.427Z,512.00
2022-08-02T04:16:06.347Z,509.00
2022-08-02T04:17:06.527Z,506.00
2022-08-02T04:18:06.305Z,505.00
2022-08-02T04:19:06.423Z,504.00
2022-08-02T04:20:06.288Z,506.00
2022-08-02T04:21:07.418Z,508.00
2022-08-02T04:22:06.246Z,508.00
2022-08-02T04:23:27.324Z,509.00
2022-08-02T04:24:06.227Z,512.00
2022-08-02T04:25:06.216Z,509.00
2022-08-02T04:26:08.644Z,505.00
2022-08-02T04:27:19.495Z,505.00
2022-08-02T04:28:17.797Z,501.00
2022-08-02T04:29:07.196Z,496.00
2022-08-02T04:30:06.156Z,494.00
2022-08-02T04:31:06.196Z,492.00
2022-08-02T04:32:06.118Z,488.00
2022-08-02T04:33:06.167Z,487.00
2022-08-02T04:34:06.096Z,490.00
2022-08-02T04:35:23.506Z,492.00
2022-08-02T04:36:07.147Z,493.00
2022-08-02T04:37:06.059Z,495.00
2022-08-02T04:38:10.233Z,491.00
2022-08-02T04:39:06.067Z,487.00
2022-08-02T04:40:06.054Z,486.00
2022-08-02T04:41:06.006Z,485.00
2022-08-02T04:42:07.088Z,481.00
2022-08-02T04:43:05.999Z,480.00
2022-08-02T04:44:06.080Z,480.00
2022-08-02T04:45:05.991Z,477.00
2022-08-02T04:46:05.988Z,479.00
2022-08-02T04:47:06.857Z,479.00
2022-08-02T04:48:06.527Z,479.00
2022-08-02T04:49:05.955Z,483.00
2022-08-02T04:50:05.916Z,482.00
2022-08-02T04:51:05.899Z,481.00
2022-08-02T04:52:06.959Z,483.00
2022-08-02T04:53:05.840Z,480.00
2022-08-02T04:54:09.602Z,482.00
2022-08-02T04:55:05.818Z,486.00
2022-08-02T04:56:05.860Z,483.00
2022-08-02T04:57:05.818Z,483.00
2022-08-02T04:58:23.733Z,485.00
2022-08-02T04:59:06.779Z,485.00
2022-08-02T05:00:06.861Z,483.00
2022-08-02T05:01:05.875Z,483.00
2022-08-02T05:02:06.821Z,484.00
2022-08-02T05:03:05.730Z,482.00
2022-08-02T05:04:05.810Z,480.00
2022-08-02T05:05:09.891Z,481.00
2022-08-02T05:06:13.290Z,482.00
2022-08-02T05:07:06.659Z,478.00
2022-08-02T05:08:05.741Z,477.00
2022-08-02T05:09:05.650Z,475.00
2022-08-02T05:10:05.661Z,476.00
2022-08-02T05:11:05.601Z,476.00
2022-08-02T05:12:06.691Z,475.00
2022-08-02T05:13:05.580Z,477.00
2022-08-02T05:14:05.764Z,478.00
2022-08-02T05:15:05.573Z,479.00
2022-08-02T05:16:05.601Z,479.00
2022-08-02T05:17:05.602Z,476.00
2022-08-02T05:18:05.610Z,474.00
2022-08-02T05:19:05.491Z,475.00
2022-08-02T05:20:05.522Z,474.00
2022-08-02T05:21:05.503Z,475.00
2022-08-02T05:22:05.532Z,475.00
2022-08-02T05:23:05.444Z,475.00
2022-08-02T05:24:05.555Z,473.00
2022-08-02T05:25:05.423Z,473.00
2022-08-02T05:26:05.483Z,473.00
2022-08-02T05:27:17.233Z,474.00
2022-08-02T05:28:11.093Z,475.00
2022-08-02T05:29:06.373Z,474.00
2022-08-02T05:30:05.408Z,474.00
2022-08-02T05:31:05.354Z,470.00
2022-08-02T05:32:08.926Z,467.00
2022-08-02T05:33:05.416Z,467.00
2022-08-02T05:34:08.676Z,466.00
2022-08-02T05:35:06.312Z,467.00
2022-08-02T05:36:05.325Z,466.00
2022-08-02T05:37:09.813Z,463.00
2022-08-02T05:38:10.005Z,463.00
2022-08-02T05:39:05.414Z,462.00
2022-08-02T05:40:12.693Z,470.00
2022-08-02T05:41:06.215Z,472.00
2022-08-02T05:42:05.520Z,467.00
2022-08-02T05:43:05.185Z,468.00
2022-08-02T05:44:05.243Z,469.00
2022-08-02T05:45:05.156Z,472.00
2022-08-02T05:46:05.236Z,467.00
2022-08-02T05:47:05.146Z,470.00
2022-08-02T05:48:05.217Z,466.00
2022-08-02T05:49:05.169Z,469.00
2022-08-02T05:50:05.186Z,469.00
2022-08-02T05:51:05.092Z,468.00
2022-08-02T05:52:05.161Z,466.00
2022-08-02T05:53:05.065Z,466.00
2022-08-02T05:54:06.074Z,468.00
2022-08-02T05:55:05.027Z,467.00
2022-08-02T05:56:08.507Z,464.00
2022-08-02T05:57:05.016Z,460.00
2022-08-02T05:58:06.368Z,460.00
2022-08-02T05:59:04.995Z,461.00
2022-08-02T06:00:05.050Z,463.00
2022-08-02T06:01:04.965Z,463.00
2022-08-02T06:02:05.165Z,467.00
2022-08-02T06:03:04.938Z,460.00
2022-08-02T06:04:05.029Z,464.00
2022-08-02T06:05:04.889Z,463.00
2022-08-02T06:06:05.959Z,466.00
2022-08-02T06:07:04.877Z,467.00
2022-08-02T06:08:07.749Z,465.00
2022-08-02T06:09:04.851Z,470.00
2022-08-02T06:10:04.857Z,467.00
2022-08-02T06:11:04.818Z,465.00
2022-08-02T06:12:04.868Z,467.00
2022-08-02T06:13:04.796Z,466.00
2022-08-02T06:14:04.844Z,465.00
2022-08-02T06:15:04.771Z,466.00
2022-08-02T06:16:04.810Z,468.00
2022-08-02T06:17:04.732Z,467.00
2022-08-02T06:18:04.825Z,466.00
2022-08-02T06:19:04.718Z,469.00
2022-08-02T06:20:04.769Z,465.00
2022-08-02T06:22:31.599Z,467.00
2022-08-02T06:22:40.705Z,462.00
2022-08-02T06:23:05.770Z,462.00
2022-08-02T06:24:05.141Z,461.00
2022-08-02T06:25:04.665Z,461.00
2022-08-02T06:26:04.641Z,457.00
2022-08-02T06:27:05.123Z,461.00
2022-08-02T06:28:04.591Z,457.00
2022-08-02T06:29:05.583Z,455.00
2022-08-02T06:30:04.602Z,456.00
2022-08-02T06:31:04.581Z,458.00
2022-08-02T06:32:04.665Z,461.00
2022-08-02T06:33:04.521Z,463.00
2022-08-02T06:34:04.621Z,461.00
2022-08-02T06:35:04.519Z,461.00
2022-08-02T06:36:04.552Z,462.00
2022-08-02T06:37:04.472Z,462.00
2022-08-02T06:38:04.602Z,461.00
2022-08-02T06:39:04.459Z,463.00
2022-08-02T06:40:04.494Z,461.00
2022-08-02T06:41:04.423Z,460.00
2022-08-02T06:42:04.486Z,459.00
2022-08-02T06:43:04.403Z,461.00
2022-08-02T06:44:26.191Z,459.00
2022-08-02T06:45:05.425Z,459.00
2022-08-02T06:46:38.035Z,455.00
2022-08-02T06:47:11.614Z,459.00
2022-08-02T06:48:05.323Z,456.00
2022-08-02T06:49:05.371Z,455.00
2022-08-02T06:50:04.370Z,454.00
2022-08-02T06:51:04.344Z,458.00
2022-08-02T06:52:04.281Z,456.00
2022-08-02T06:53:05.388Z,459.00
2022-08-02T06:54:04.274Z,464.00
2022-08-02T06:55:04.276Z,448.00
2022-08-02T06:56:04.246Z,451.00
2022-08-02T06:57:04.285Z,456.00
2022-08-02T06:58:04.207Z,454.00
2022-08-02T06:59:06.227Z,459.00
2022-08-02T07:00:04.175Z,459.00
2022-08-02T07:01:04.342Z,458.00
2022-08-02T07:02:04.166Z,454.00
2022-08-02T07:03:05.787Z,451.00
2022-08-02T07:04:04.119Z,459.00
2022-08-02T07:05:04.137Z,461.00
2022-08-02T07:06:04.128Z,463.00
2022-08-02T07:07:04.148Z,463.00
2022-08-02T07:08:04.089Z,460.00
2022-08-02T07:09:20.507Z,457.00
2022-08-02T07:10:05.044Z,456.00
2022-08-02T07:11:04.088Z,453.00
2022-08-02T07:12:04.018Z,449.00
2022-08-02T07:13:04.098Z,452.00
2022-08-02T07:14:04.007Z,454.00
2022-08-02T07:15:04.009Z,446.00
2022-08-02T07:16:03.952Z,453.00
2022-08-02T07:17:04.059Z,451.00
2022-08-02T07:18:03.934Z,451.00
2022-08-02T07:19:04.039Z,448.00
2022-08-02T07:20:03.936Z,448.00
2022-08-02T07:21:03.949Z,451.00
2022-08-02T07:22:03.891Z,448.00
2022-08-02T07:23:03.958Z,450.00
2022-08-02T07:24:03.848Z,455.00
2022-08-02T07:25:03.878Z,450.00
2022-08-02T07:26:05.804Z,447.00
2022-08-02T07:27:12.752Z,449.00
2022-08-02T07:28:04.810Z,449.00
2022-08-02T07:29:03.949Z,451.00
2022-08-02T07:30:03.770Z,452.00
2022-08-02T07:31:03.811Z,452.00
2022-08-02T07:32:03.779Z,451.00
2022-08-02T07:33:04.758Z,449.00
2022-08-02T07:34:03.748Z,452.00
2022-08-02T07:35:06.953Z,454.00
2022-08-02T07:36:05.369Z,452.00
2022-08-02T07:37:03.759Z,456.00
2022-08-02T07:38:03.694Z,454.00
2022-08-02T07:39:03.772Z,453.00
2022-08-02T07:40:06.467Z,451.00
2022-08-02T07:41:04.647Z,451.00
2022-08-02T07:42:03.694Z,448.00
2022-08-02T07:43:04.423Z,452.00
2022-08-02T07:44:03.655Z,453.00
2022-08-02T07:45:03.585Z,456.00
2022-08-02T07:46:03.633Z,445.00
2022-08-02T07:47:03.533Z,448.00
2022-08-02T07:48:03.633Z,448.00
2022-08-02T07:49:03.616Z,445.00
2022-08-02T07:50:03.587Z,446.00
2022-08-02T07:51:03.504Z,448.00
2022-08-02T07:52:03.554Z,449.00
2022-08-02T07:53:03.474Z,454.00
2022-08-02T07:54:04.925Z,459.00
2022-08-02T07:55:03.445Z,456.00
2022-08-02T07:56:03.524Z,452.00
2022-08-02T07:57:03.485Z,456.00
2022-08-02T07:58:03.503Z,450.00
2022-08-02T07:59:03.413Z,453.00
2022-08-02T08:00:04.444Z,451.00
2022-08-02T08:01:03.435Z,450.00
2022-08-02T08:02:03.543Z,453.00
2022-08-02T08:03:03.364Z,453.00
2022-08-02T08:04:04.365Z,454.00
2022-08-02T08:05:03.317Z,455.00
2022-08-02T08:06:03.357Z,455.00
2022-08-02T08:07:03.286Z,454.00
2022-08-02T08:08:03.496Z,452.00
2022-08-02T08:09:03.268Z,450.00
2022-08-02T08:10:03.284Z,456.00
2022-08-02T08:11:03.237Z,459.00
2022-08-02T08:12:04.212Z,463.00
2022-08-02T08:13:03.307Z,461.00
2022-08-02T08:14:03.337Z,454.00
2022-08-02T08:15:03.738Z,446.00
2022-08-02T08:16:03.230Z,447.00
2022-08-02T08:17:03.168Z,445.00
2022-08-02T08:18:03.247Z,441.00
2022-08-02T08:19:03.128Z,451.00
2022-08-02T08:20:03.268Z,458.00
2022-08-02T08:21:03.109Z,470.00
2022-08-02T08:22:03.168Z,468.00
2022-08-02T08:23:03.081Z,453.00
2022-08-02T08:24:03.177Z,455.00
2022-08-02T08:25:03.057Z,456.00
2022-08-02T08:26:03.150Z,456.00
2022-08-02T08:27:03.032Z,450.00
2022-08-02T08:28:03.141Z,451.00
2022-08-02T08:29:24.103Z,452.00
2022-08-02T08:30:02.988Z,452.00
2022-08-02T08:31:03.374Z,454.00
2022-08-02T08:32:02.983Z,455.00
2022-08-02T08:33:03.044Z,454.00
2022-08-02T08:34:03.533Z,455.00
2022-08-02T08:35:02.953Z,454.00
2022-08-02T08:36:02.911Z,455.00
2022-08-02T08:37:02.966Z,453.00
2022-08-02T08:38:07.247Z,452.00
2022-08-02T08:39:03.872Z,452.00
2022-08-02T08:40:04.156Z,449.00
2022-08-02T08:41:02.855Z,449.00
2022-08-02T08:42:02.897Z,446.00
2022-08-02T08:43:03.949Z,446.00
2022-08-02T08:44:02.832Z,448.00
2022-08-02T08:45:03.862Z,449.00
2022-08-02T08:46:03.277Z,450.00
2022-08-02T08:47:02.833Z,451.00
2022-08-02T08:48:02.755Z,451.00
2022-08-02T08:49:02.879Z,451.00
2022-08-02T08:50:02.753Z,452.00
2022-08-02T08:51:03.781Z,451.00
2022-08-02T08:52:02.695Z,449.00
2022-08-02T08:53:02.787Z,451.00
2022-08-02T08:54:02.677Z,450.00
2022-08-02T08:55:02.685Z,449.00
2022-08-02T08:56:02.776Z,452.00
2022-08-02T08:57:02.697Z,449.00
2022-08-02T08:58:02.623Z,451.00
2022-08-02T08:59:02.714Z,450.00
2022-08-02T09:00:02.596Z,455.00
2022-08-02T09:01:02.670Z,455.00
2022-08-02T09:02:16.816Z,456.00
2022-08-02T09:03:03.555Z,459.00
2022-08-02T09:04:02.647Z,456.00
2022-08-02T09:05:02.516Z,453.00
2022-08-02T09:06:03.406Z,451.00
2022-08-02T09:07:05.291Z,449.00
2022-08-02T09:08:02.616Z,453.00
2022-08-02T09:09:02.482Z,455.00
2022-08-02T09:10:02.503Z,454.00
2022-08-02T09:11:02.459Z,453.00
2022-08-02T09:12:02.508Z,452.00
2022-08-02T09:13:02.428Z,449.00
2022-08-02T09:14:03.439Z,443.00
2022-08-02T09:15:02.513Z,445.00
2022-08-02T09:16:12.674Z,452.00
2022-08-02T09:17:03.388Z,452.00
2022-08-02T09:18:02.459Z,453.00
2022-08-02T09:19:02.372Z,454.00
2022-08-02T09:20:03.372Z,450.00
2022-08-02T09:21:02.366Z,451.00
2022-08-02T09:22:02.376Z,453.00
2022-08-02T09:23:03.417Z,449.00
2022-08-02T09:24:02.290Z,456.00
2022-08-02T09:25:02.293Z,458.00
2022-08-02T09:26:05.747Z,461.00
2022-08-02T09:27:03.249Z,461.00
2022-08-02T09:28:02.321Z,453.00
2022-08-02T09:29:02.248Z,459.00
2022-08-02T09:30:11.631Z,458.00
2022-08-02T09:31:03.224Z,462.00
2022-08-02T09:32:02.244Z,458.00
2022-08-02T09:33:05.655Z,457.00
2022-08-02T09:34:02.145Z,454.00
2022-08-02T09:35:02.262Z,452.00
2022-08-02T09:36:06.476Z,451.00
2022-08-02T09:37:03.153Z,447.00
2022-08-02T09:38:02.184Z,448.00
2022-08-02T09:39:02.084Z,448.00
2022-08-02T09:40:02.243Z,447.00
2022-08-02T09:41:02.061Z,449.00
2022-08-02T09:42:02.102Z,445.00
2022-08-02T09:43:02.051Z,456.00
2022-08-02T09:44:03.986Z,452.00
2022-08-02T09:45:02.005Z,450.00
2022-08-02T09:46:02.034Z,449.00
2022-08-02T09:47:01.984Z,450.00
2022-08-02T09:48:24.013Z,452.00
2022-08-02T09:49:03.144Z,452.00
2022-08-02T09:50:02.064Z,450.00
2022-08-02T09:51:02.380Z,450.00
2022-08-02T09:52:01.968Z,467.00
2022-08-02T09:53:01.914Z,456.00
2022-08-02T09:54:09.403Z,458.00
2022-08-02T09:55:02.886Z,453.00
2022-08-02T09:56:01.904Z,449.00
2022-08-02T09:57:01.859Z,450.00
2022-08-02T09:58:01.917Z,450.00
2022-08-02T09:59:01.819Z,453.00
2022-08-02T10:00:01.877Z,457.00
2022-08-02T10:01:01.847Z,502.00
2022-08-02T10:02:04.066Z,471.00
2022-08-02T10:03:01.776Z,461.00
2022-08-02T10:04:01.866Z,451.00
2022-08-02T10:05:01.752Z,453.00
2022-08-02T10:06:02.554Z,452.00
2022-08-02T10:07:01.718Z,455.00
2022-08-02T10:08:01.861Z,456.00
2022-08-02T10:09:01.697Z,460.00
2022-08-02T10:10:01.797Z,460.00
2022-08-02T10:11:01.795Z,460.00
2022-08-02T10:12:01.801Z,458.00
2022-08-02T10:13:01.650Z,457.00
2022-08-02T10:14:01.803Z,470.00
2022-08-02T10:15:01.628Z,481.00
2022-08-02T10:16:01.639Z,471.00
2022-08-02T10:17:01.599Z,466.00
2022-08-02T10:18:09.389Z,464.00
2022-08-02T10:19:02.679Z,459.00
2022-08-02T10:20:04.738Z,451.00
2022-08-02T10:21:01.571Z,446.00
2022-08-02T10:22:01.531Z,450.00
2022-08-02T10:23:01.580Z,450.00
2022-08-02T10:24:01.531Z,451.00
2022-08-02T10:25:01.599Z,453.00
2022-08-02T10:26:01.486Z,514.00
2022-08-02T10:27:01.510Z,460.00
2022-08-02T10:28:05.814Z,455.00
2022-08-02T10:29:01.451Z,450.00
2022-08-02T10:30:01.490Z,448.00
2022-08-02T10:31:01.422Z,451.00
2022-08-02T10:32:01.442Z,450.00
2022-08-02T10:33:01.391Z,449.00
2022-08-02T10:34:01.461Z,450.00
2022-08-02T10:35:18.938Z,448.00
2022-08-02T10:36:06.965Z,449.00
2022-08-02T10:37:02.405Z,446.00
2022-08-02T10:38:01.632Z,449.00
2022-08-02T10:39:01.394Z,446.00
2022-08-02T10:40:01.302Z,456.00
2022-08-02T10:41:01.306Z,673.00
2022-08-02T10:42:01.290Z,694.00
2022-08-02T10:43:01.682Z,528.00
2022-08-02T10:44:01.235Z,660.00
2022-08-02T10:45:01.334Z,700.00
2022-08-02T10:46:01.215Z,550.00
2022-08-02T10:47:01.242Z,488.00
2022-08-02T10:48:01.267Z,460.00
2022-08-02T10:49:01.443Z,472.00
2022-08-02T10:50:01.206Z,454.00
2022-08-02T10:51:01.174Z,460.00
2022-08-02T10:52:01.143Z,457.00
2022-08-02T10:53:02.205Z,454.00
2022-08-02T10:54:01.133Z,454.00
2022-08-02T10:55:01.195Z,452.00
2022-08-02T10:56:01.100Z,451.00
2022-08-02T10:57:01.285Z,489.00
2022-08-02T10:58:01.056Z,491.00
2022-08-02T10:59:01.130Z,644.00
2022-08-02T11:00:01.057Z,672.00
2022-08-02T11:01:01.087Z,667.00
2022-08-02T11:02:01.092Z,532.00
2022-08-02T11:03:01.057Z,466.00
2022-08-02T11:04:00.986Z,460.00
2022-08-02T11:05:01.067Z,459.00
2022-08-02T11:06:00.978Z,458.00
2022-08-02T11:07:02.011Z,458.00
2022-08-02T11:08:00.935Z,454.00
2022-08-02T11:09:00.996Z,454.00
2022-08-02T11:10:00.909Z,453.00
2022-08-02T11:11:00.911Z,449.00
2022-08-02T11:12:00.888Z,451.00
2022-08-02T11:13:00.920Z,452.00
2022-08-02T11:14:00.860Z,450.00
2022-08-02T11:15:00.938Z,448.00
2022-08-02T11:16:00.828Z,448.00
2022-08-02T11:17:00.847Z,454.00
2022-08-02T11:18:00.828Z,460.00
2022-08-02T11:19:00.861Z,453.00
2022-08-02T11:20:00.778Z,478.00
2022-08-02T11:21:00.779Z,451.00
2022-08-02T11:22:00.750Z,448.00
2022-08-02T11:23:00.801Z,445.00
2022-08-02T11:24:00.750Z,556.00
2022-08-02T11:25:00.801Z,525.00
2022-08-02T11:26:10.996Z,640.00
2022-08-02T11:27:01.691Z,598.00
2022-08-02T11:28:00.722Z,656.00
2022-08-02T11:29:00.693Z,663.00
2022-08-02T11:30:00.684Z,611.00
2022-08-02T11:31:00.631Z,513.00
2022-08-02T11:32:00.651Z,474.00
2022-08-02T11:33:00.607Z,456.00
2022-08-02T11:34:00.662Z,485.00
2022-08-02T11:35:00.576Z,468.00
2022-08-02T11:36:00.635Z,456.00
2022-08-02T11:37:00.556Z,453.00
2022-08-02T11:38:00.593Z,458.00
2022-08-02T11:39:00.525Z,452.00
2022-08-02T11:40:01.633Z,496.00
2022-08-02T11:41:00.505Z,462.00
2022-08-02T11:42:01.508Z,534.00
2022-08-02T11:43:00.522Z,631.00
2022-08-02T11:44:00.457Z,620.00
2022-08-02T11:45:00.539Z,619.00
2022-08-02T11:46:00.436Z,606.00
2022-08-02T11:47:00.464Z,480.00
2022-08-02T11:48:00.426Z,451.00
2022-08-02T11:49:00.507Z,445.00
2022-08-02T11:50:00.412Z,442.00
2022-08-02T11:51:00.481Z,444.00
2022-08-02T11:52:00.379Z,444.00
2022-08-02T11:53:00.397Z,445.00
2022-08-02T11:54:00.378Z,451.00
2022-08-02T11:55:00.407Z,448.00
2022-08-02T11:56:00.316Z,444.00
2022-08-02T11:57:00.318Z,443.00
2022-08-02T11:58:04.637Z,554.00
2022-08-02T11:59:01.292Z,614.00
2022-08-02T12:00:00.338Z,501.00
2022-08-02T12:01:00.254Z,478.00
2022-08-02T12:02:00.257Z,567.00
2022-08-02T12:03:00.290Z,576.00
2022-08-02T12:04:00.270Z,553.00
2022-08-02T12:05:00.240Z,470.00
2022-08-02T12:06:06.363Z,451.00
2022-08-02T12:07:01.169Z,450.00
2022-08-02T12:08:00.193Z,452.00
2022-08-02T12:09:00.159Z,549.00
2022-08-02T12:10:00.214Z,620.00
2022-08-02T12:11:00.132Z,560.00
2022-08-02T12:12:00.120Z,594.00
2022-08-02T12:13:00.095Z,469.00
2022-08-02T12:14:00.141Z,456.00
2022-08-02T12:15:00.071Z,492.00
2022-08-02T12:16:00.159Z,532.00
2022-08-02T12:17:00.089Z,491.00
2022-08-02T12:18:00.067Z,577.00
2022-08-02T12:19:00.005Z,582.00
2022-08-02T12:20:00.099Z,631.00
2022-08-02T12:20:59.984Z,487.00
2022-08-02T12:22:00.091Z,603.00
2022-08-02T12:22:59.994Z,620.00
2022-08-02T12:24:01.378Z,640.00
2022-08-02T12:24:59.943Z,642.00
2022-08-02T12:26:00.016Z,635.00
2022-08-02T12:26:59.911Z,629.00
2022-08-02T12:27:59.935Z,629.00